Time;durP1;ratioP1;P1;durP2;ratioP2;P2;SDS_P1;SDS_P2;PMS_P1;PMS_P2;Temp;Humidity;BMP_temperature;BMP_pressure;BME280_temperature;BME280_humidity;BME280_pressure;Samples;Min_cycle;Max_cycle;Signal;HPM_P1;HPM_P2
2023/06/07 00:02:30;;;;;;;17.63;11.48;;;17.30;99.90;;;17.67;69.61;102042.63;4936755;29;20497;-62
2023/06/07 00:05:12;;;;;;;18.92;11.02;;;17.30;99.90;;;17.71;69.77;102048.84;4934489;29;20058;-62
2023/06/07 00:07:41;;;;;;;20.58;11.05;;;17.30;99.90;;;17.53;69.91;102004.50;4936609;29;20429;-62
2023/06/07 00:10:11;;;;;;;20.40;10.90;;;17.40;99.90;;;17.63;69.86;102045.41;4936753;29;20048;-62
2023/06/07 00:12:42;;;;;;;19.00;11.02;;;17.30;99.90;;;17.46;69.98;102029.53;4936468;29;20044;-63
2023/06/07 00:15:12;;;;;;;24.27;12.75;;;17.20;99.90;;;17.53;70.31;102038.41;4932994;29;20052;-62
2023/06/07 00:17:43;;;;;;;19.55;12.00;;;17.20;99.90;;;17.49;70.59;102042.03;4936445;29;20052;-63
2023/06/07 00:20:12;;;;;;;19.63;11.18;;;17.10;99.90;;;17.49;70.60;102032.22;4936493;29;20424;-63
2023/06/07 00:22:41;;;;;;;21.35;11.63;;;17.20;99.90;;;17.54;70.79;102035.69;4936395;29;20138;-62
2023/06/07 00:25:10;;;;;;;18.63;11.45;;;17.10;99.90;;;17.57;70.63;102040.13;4936284;29;20095;-62
2023/06/07 00:27:39;;;;;;;17.40;11.18;;;17.20;99.90;;;17.54;70.71;102033.03;4936309;29;20044;-63
2023/06/07 00:30:09;;;;;;;18.65;12.00;;;17.10;99.90;;;17.54;70.76;102034.81;4950656;29;20087;-63
2023/06/07 00:32:38;;;;;;;20.10;11.60;;;17.20;99.90;;;17.50;70.74;102033.13;4936452;29;20048;-62
2023/06/07 00:35:09;;;;;;;18.10;11.40;;;17.10;99.90;;;17.54;70.79;102032.13;4932816;29;20043;-62
2023/06/07 00:37:38;;;;;;;23.65;12.65;;;17.10;99.90;;;17.51;70.65;102026.84;4935095;29;20067;-62
2023/06/07 00:40:08;;;;;;;21.67;12.25;;;17.10;99.90;;;17.52;70.86;102023.25;4936131;29;20059;-62
2023/06/07 00:42:36;;;;;;;17.15;10.68;;;17.10;99.90;;;17.43;71.14;102023.34;4934831;29;20048;-62
2023/06/07 00:45:06;;;;;;;17.77;12.18;;;17.00;99.90;;;17.21;71.26;102019.22;4935891;29;20098;-63
2023/06/07 00:47:38;;;;;;;14.93;11.15;;;17.10;99.90;;;17.41;71.55;102041.22;4950793;29;20056;-63
2023/06/07 00:50:09;;;;;;;17.98;11.73;;;17.00;99.90;;;17.34;71.69;102018.13;4935839;29;20524;-63
2023/06/07 00:52:38;;;;;;;17.55;11.45;;;17.00;99.90;;;17.36;71.22;102024.34;4932748;29;20075;-62
2023/06/07 00:55:09;;;;;;;21.35;11.13;;;17.00;99.90;;;17.38;71.22;102028.75;4935866;29;20079;-62
2023/06/07 00:57:38;;;;;;;20.42;12.30;;;17.00;99.90;;;17.31;71.44;102026.19;4935763;29;20154;-63
2023/06/07 01:00:10;;;;;;;21.15;12.00;;;16.90;99.90;;;17.27;71.71;102024.44;4935684;29;20052;-63
2023/06/07 01:02:39;;;;;;;21.45;11.82;;;16.90;99.90;;;17.33;71.55;102035.97;4935795;29;20079;-62
2023/06/07 01:05:11;;;;;;;17.73;11.00;;;16.90;99.90;;;17.28;71.23;102029.81;4935859;29;20048;-63
2023/06/07 01:07:40;;;;;;;22.30;11.73;;;16.90;99.90;;;17.21;71.63;102025.41;4932210;29;20043;-64
2023/06/07 01:10:10;;;;;;;21.58;12.57;;;16.90;99.90;;;16.51;71.79;101897.13;4935712;29;20069;-63
2023/06/07 01:12:44;;;;;;;19.87;12.20;;;16.80;99.90;;;17.19;72.02;102029.91;4935747;29;20054;-63
2023/06/07 01:15:13;;;;;;;19.98;12.52;;;16.80;99.90;;;17.10;72.10;102032.72;4935623;29;20646;-63
2023/06/07 01:17:44;;;;;;;21.25;11.80;;;16.70;99.90;;;17.12;72.19;102036.25;4935514;29;20051;-65
2023/06/07 01:20:19;;;;;;;18.95;11.82;;;16.80;99.90;;;17.13;72.61;102030.88;4935540;29;20052;-63
2023/06/07 01:22:51;;;;;;;20.70;11.27;;;16.70;99.90;;;17.04;72.45;102011.38;4932938;29;20055;-63
2023/06/07 01:25:22;;;;;;;18.98;12.23;;;16.80;99.90;;;16.96;72.69;102024.84;4935407;29;20043;-63
2023/06/07 01:27:55;;;;;;;19.40;12.48;;;16.70;99.90;;;17.00;72.59;102033.72;4935579;29;20051;-62
2023/06/07 01:30:24;;;;;;;20.33;12.77;;;16.60;99.90;;;17.01;72.82;102027.47;4935311;29;20059;-62
2023/06/07 01:32:53;;;;;;;23.08;11.65;;;16.60;99.90;;;17.00;72.87;102015.91;4943123;29;20123;-65
2023/06/07 01:35:23;;;;;;;21.75;12.52;;;16.70;99.90;;;17.02;72.95;102021.22;4935395;29;20044;-62
2023/06/07 01:37:52;;;;;;;19.73;11.55;;;16.70;99.90;;;17.04;72.71;102025.66;4935403;29;20117;-62
2023/06/07 01:40:24;;;;;;;19.27;11.60;;;16.70;99.90;;;17.02;72.93;102016.75;4935209;29;20501;-62
2023/06/07 01:42:55;;;;;;;20.38;12.73;;;16.70;99.90;;;16.96;72.85;102022.19;4934017;29;20493;-63
2023/06/07 01:45:24;;;;;;;19.70;12.02;;;16.60;99.90;;;16.97;72.90;102018.63;4933885;29;20158;-62
2023/06/07 01:47:53;;;;;;;21.48;11.85;;;16.60;99.90;;;16.96;73.23;102022.19;4935479;29;20075;-63
2023/06/07 01:50:22;;;;;;;22.13;12.55;;;16.60;99.90;;;17.00;72.94;102013.22;4931846;29;20055;-62
2023/06/07 01:52:51;;;;;;;18.10;12.52;;;16.60;99.90;;;17.00;73.02;102015.00;4932038;29;20047;-63
2023/06/07 01:55:21;;;;;;;20.33;11.82;;;16.60;99.90;;;16.96;72.83;102016.84;4935077;29;20047;-63
2023/06/07 01:58:07;;;;;;;19.05;11.52;;;16.60;99.90;;;16.94;73.21;102015.06;4935064;29;20432;-63
2023/06/07 02:00:49;;;;;;;19.83;11.60;;;16.60;99.90;;;16.98;73.06;102004.34;4946413;29;20075;-64
2023/06/07 02:03:25;;;;;;;21.52;11.82;;;16.60;99.90;;;16.73;72.92;101953.88;4949777;29;20044;-63
2023/06/07 02:06:00;;;;;;;20.52;11.32;;;16.60;99.90;;;16.79;72.82;101969.84;4931399;29;20108;-65
2023/06/07 02:08:32;;;;;;;22.50;11.52;;;16.60;99.90;;;17.03;72.89;102007.81;4934976;29;20043;-63
2023/06/07 02:11:03;;;;;;;18.58;11.57;;;16.60;99.90;;;16.98;72.61;102004.34;4933880;29;20055;-62
2023/06/07 02:13:36;;;;;;;21.60;11.95;;;16.60;99.90;;;16.91;72.72;102013.34;4937515;29;20390;-63
2023/06/07 02:16:05;;;;;;;17.00;11.10;;;16.50;99.90;;;16.81;73.10;102003.66;4953580;29;20062;-63
2023/06/07 02:18:37;;;;;;;21.52;12.57;;;16.50;99.90;;;16.81;73.41;102009.00;4934038;29;20082;-63
2023/06/07 02:21:06;;;;;;;21.10;10.75;;;16.40;99.90;;;16.79;73.57;102010.81;4938771;29;20047;-63
2023/06/07 02:23:34;;;;;;;19.23;11.35;;;16.40;99.90;;;16.77;73.54;102004.59;4938462;29;20063;-63
2023/06/07 02:26:04;;;;;;;20.90;11.27;;;16.50;99.90;;;16.64;73.68;101996.75;4953244;29;20050;-63
2023/06/07 02:28:32;;;;;;;20.90;10.87;;;16.40;99.90;;;16.76;73.62;102007.28;4938419;29;20139;-63
2023/06/07 02:31:01;;;;;;;20.02;11.32;;;16.40;99.90;;;16.76;73.36;101999.28;4937105;29;20371;-63
2023/06/07 02:33:29;;;;;;;17.25;11.35;;;16.40;99.90;;;16.72;73.75;102009.13;4938320;29;20051;-63
2023/06/07 02:35:58;;;;;;;21.05;10.73;;;16.30;99.90;;;16.75;73.65;102006.41;4953127;29;20110;-64
2023/06/07 02:38:27;;;;;;;16.77;10.18;;;16.40;99.90;;;16.73;73.84;102009.97;4934653;29;20051;-63
2023/06/07 02:40:56;;;;;;;19.33;11.18;;;16.40;99.90;;;16.70;73.84;102007.34;4938295;29;20095;-63
2023/06/07 02:43:27;;;;;;;23.95;11.75;;;16.30;99.90;;;16.68;74.00;102007.38;4938145;29;20094;-63
2023/06/07 02:45:55;;;;;;;19.40;10.63;;;16.30;99.90;;;16.65;74.04;102002.06;4938026;29;20052;-64
2023/06/07 02:48:24;;;;;;;23.70;11.98;;;16.30;99.90;;;16.68;74.30;102010.06;4938099;29;20066;-63
2023/06/07 02:50:54;;;;;;;20.58;11.27;;;16.30;99.90;;;16.68;74.38;102003.81;4952813;29;20047;-63
2023/06/07 02:53:23;;;;;;;21.52;11.10;;;16.30;99.90;;;16.71;74.65;102006.44;4929112;29;20390;-63
2023/06/07 02:55:51;;;;;;;16.88;10.30;;;16.30;99.90;;;16.67;74.50;102002.94;4936376;29;20412;-63
2023/06/07 02:58:20;;;;;;;20.92;10.32;;;16.30;99.90;;;16.65;74.68;102004.72;4936535;29;20059;-63
2023/06/07 03:00:52;;;;;;;23.33;10.80;;;16.30;99.90;;;16.62;74.61;102002.09;4934590;29;20138;-62
2023/06/07 03:03:21;;;;;;;18.77;10.20;;;16.30;99.90;;;16.64;75.03;102004.75;4936801;29;20044;-63
2023/06/07 03:05:59;;;;;;;18.70;10.93;;;16.30;99.90;;;16.59;74.96;101999.44;4929098;29;20138;-62
2023/06/07 03:08:32;;;;;;;25.40;10.90;;;16.20;99.90;;;16.62;75.12;101999.44;4936577;29;20052;-63
2023/06/07 03:11:01;;;;;;;19.23;10.37;;;16.30;99.90;;;16.64;75.30;102004.75;4933099;29;20078;-63
2023/06/07 03:13:35;;;;;;;15.80;10.07;;;16.30;99.90;;;16.64;75.27;101999.41;4936455;29;20127;-62
2023/06/07 03:16:09;;;;;;;24.92;10.73;;;16.30;99.90;;;16.64;75.24;102011.00;4936506;29;20416;-62
2023/06/07 03:18:48;;;;;;;24.92;11.35;;;16.30;99.90;;;16.63;75.32;102006.53;4933061;29;20505;-63
2023/06/07 03:21:17;;;;;;;16.98;9.88;;;16.30;99.90;;;16.68;75.43;102007.38;4936071;29;20052;-63
2023/06/07 03:23:46;;;;;;;18.23;10.43;;;16.30;99.90;;;16.51;75.26;101973.75;4952084;28;20051;-64
2023/06/07 03:26:15;;;;;;;18.25;10.07;;;16.30;99.90;;;16.67;75.34;101996.69;4936198;29;20394;-62
2023/06/07 03:28:44;;;;;;;18.27;10.68;;;16.30;99.90;;;16.65;75.41;101996.72;4952062;29;20497;-63
2023/06/07 03:31:14;;;;;;;18.23;10.38;;;16.30;99.90;;;16.64;75.67;102000.31;4937237;29;20068;-62
2023/06/07 03:33:52;;;;;;;16.05;10.13;;;16.30;99.90;;;16.67;75.62;101997.59;4943708;29;20086;-63
2023/06/07 03:36:24;;;;;;;18.63;10.30;;;16.30;99.90;;;16.60;75.85;102000.34;4944436;29;20515;-63
2023/06/07 03:38:54;;;;;;;21.80;12.63;;;16.20;99.90;;;16.56;76.04;101991.47;4936139;29;20055;-63
2023/06/07 03:41:22;;;;;;;21.30;11.00;;;16.20;99.90;;;16.55;76.04;101994.19;4937244;29;20059;-63
2023/06/07 03:43:53;;;;;;;18.88;10.82;;;16.20;99.90;;;16.51;76.06;102003.97;4936017;29;20114;-63
2023/06/07 03:46:22;;;;;;;20.60;11.35;;;16.20;99.90;;;16.44;76.03;102004.94;4951736;29;20103;-63
2023/06/07 03:48:52;;;;;;;25.95;10.85;;;16.10;99.90;;;16.43;76.41;101997.81;4936044;29;20637;-62
2023/06/07 03:51:22;;;;;;;23.45;11.60;;;16.10;99.90;;;16.46;76.47;102005.78;4944278;29;20493;-63
2023/06/07 03:53:51;;;;;;;20.48;12.18;;;16.10;99.90;;;16.37;76.76;102003.22;4937047;29;20051;-63
2023/06/07 03:56:20;;;;;;;19.45;11.50;;;16.10;99.90;;;16.26;76.91;102003.31;4927955;29;20032;-63
2023/06/07 03:58:50;;;;;;;22.00;11.90;;;16.00;99.90;;;16.26;77.50;102000.66;4935540;29;20056;-62
2023/06/07 04:01:25;;;;;;;17.35;11.10;;;15.90;99.90;;;16.28;77.52;102005.97;4951692;29;20063;-62
2023/06/07 04:03:57;;;;;;;19.02;11.02;;;15.90;99.90;;;16.35;77.34;101998.78;4933240;29;20052;-63
2023/06/07 04:06:27;;;;;;;18.52;11.40;;;16.00;99.90;;;16.33;76.97;102004.16;4936608;29;20044;-63
2023/06/07 04:08:56;;;;;;;21.08;11.18;;;16.00;99.90;;;16.40;77.17;102010.31;4951286;29;20055;-63
2023/06/07 04:11:27;;;;;;;20.75;11.50;;;16.00;99.90;;;16.35;76.87;102010.38;4935147;29;20158;-63
2023/06/07 04:13:56;;;;;;;19.27;10.52;;;16.00;99.90;;;15.71;76.83;101889.97;4935378;29;20074;-63
2023/06/07 04:16:30;;;;;;;16.30;10.80;;;16.10;99.90;;;16.49;76.66;102000.44;4935202;29;20047;-63
2023/06/07 04:18:59;;;;;;;19.77;11.63;;;16.10;99.90;;;16.54;76.59;102006.66;4932904;29;20406;-63
2023/06/07 04:21:32;;;;;;;22.90;10.73;;;16.20;99.90;;;16.53;76.37;102002.19;4935137;29;20501;-62
2023/06/07 04:24:04;;;;;;;20.55;11.88;;;16.20;99.90;;;16.57;76.27;102009.25;4951157;29;20059;-62
2023/06/07 04:26:33;;;;;;;;;;;16.20;99.90;;;16.54;76.33;102006.66;4935665;29;20043;-62
2023/06/07 04:29:04;;;;;;;26.40;12.20;;;16.20;99.90;;;16.57;76.44;102019.09;4935112;29;19923;-62
2023/06/07 04:31:39;;;;;;;19.67;10.82;;;16.30;99.90;;;15.85;76.32;101873.84;4928292;29;20111;-64
2023/06/07 04:34:13;;;;;;;21.58;11.63;;;16.30;99.90;;;15.82;76.04;101885.41;4950835;29;20482;-63
2023/06/07 04:36:41;;;;;;;29.17;11.93;;;16.20;99.90;;;16.49;76.06;102011.13;4942848;28;20052;-64
2023/06/07 04:39:18;;;;;;;23.98;11.90;;;16.20;99.90;;;16.50;76.27;102010.25;4950888;29;20044;-64
2023/06/07 04:41:48;;;;;;;24.67;12.23;;;16.20;99.90;;;16.48;76.51;102012.03;4939298;29;20063;-64
2023/06/07 04:44:28;;;;;;;;;;;16.10;99.90;;;16.36;76.87;102016.56;4951090;29;20048;-64
2023/06/07 04:47:09;;;;;;;21.05;11.02;;;16.10;99.90;;;16.32;76.89;102020.19;4932388;29;19930;-65
2023/06/07 04:49:41;;;;;;;22.58;11.73;;;16.00;99.90;;;16.30;77.17;102014.00;4924477;29;20084;-63
2023/06/07 04:52:12;;;;;;;25.90;11.52;;;16.00;99.90;;;16.09;77.45;102015.03;4942882;29;20071;-64
2023/06/07 04:54:46;;;;;;;19.88;11.30;;;15.80;99.90;;;16.10;77.97;102022.19;4950602;29;20048;-64
2023/06/07 04:57:18;;;;;;;22.58;11.07;;;15.80;99.90;;;16.21;78.08;102026.53;4942160;29;20497;-63
2023/06/07 04:59:49;;;;;;;20.20;11.13;;;15.80;99.90;;;16.28;77.82;102013.97;4923604;29;20139;-64
2023/06/07 05:02:27;;;;;;;20.40;10.98;;;15.90;99.90;;;16.17;77.88;102021.22;4942777;29;20058;-63
2023/06/07 05:04:57;;;;;;;23.02;11.70;;;15.90;99.90;;;16.31;77.68;102021.09;4934637;29;20048;-64
2023/06/07 05:07:26;;;;;;;20.20;11.07;;;15.90;99.90;;;16.21;77.76;102025.63;4950454;29;20122;-63
2023/06/07 05:09:56;;;;;;;20.98;10.90;;;15.90;99.90;;;16.15;78.09;102015.91;4931458;29;20059;-61
2023/06/07 05:12:25;;;;;;;17.63;10.75;;;15.80;99.90;;;16.20;78.16;102011.38;4923210;29;20055;-62
2023/06/07 05:14:54;;;;;;;23.75;10.68;;;15.80;99.90;;;16.32;77.79;102018.41;4935577;29;20126;-63
2023/06/07 05:17:23;;;;;;;18.75;10.23;;;16.00;99.90;;;16.31;77.72;102018.41;4934291;29;20048;-62
2023/06/07 05:19:56;;;;;;;18.40;10.13;;;16.00;99.90;;;15.64;77.81;101892.72;4935659;29;20083;-64
2023/06/07 05:22:25;;;;;;;26.58;11.32;;;16.00;99.90;;;16.39;77.30;102013.88;4934476;29;20142;-62
2023/06/07 05:24:54;;;;;;;18.65;10.85;;;16.10;99.90;;;16.41;77.39;102021.00;4926679;29;20043;-61
2023/06/07 05:27:22;;;;;;;20.23;10.27;;;16.10;99.90;;;16.23;77.11;101987.34;4935591;29;20079;-62
2023/06/07 05:29:51;;;;;;;20.67;10.45;;;16.10;99.90;;;16.26;77.28;102023.78;4935216;29;20102;-62
2023/06/07 05:32:19;;;;;;;22.40;10.70;;;16.00;99.90;;;16.28;77.99;102022.00;4935347;29;20039;-63
2023/06/07 05:34:49;;;;;;;24.88;10.05;;;16.00;99.90;;;16.41;77.85;102031.69;4949949;29;20142;-62
2023/06/07 05:37:19;;;;;;;17.88;10.18;;;16.10;99.90;;;16.56;77.43;102023.53;4935145;29;20561;-63
2023/06/07 05:39:49;;;;;;;24.67;10.40;;;16.20;99.90;;;16.66;77.15;102030.56;4949900;29;20055;-62
2023/06/07 05:42:17;;;;;;;18.77;9.95;;;16.30;99.90;;;16.76;76.81;102028.69;4949962;29;20390;-64
2023/06/07 05:44:46;;;;;;;20.17;9.43;;;16.40;99.90;;;16.85;76.57;102025.88;4934010;29;20505;-64
2023/06/07 05:47:15;;;;;;;24.10;10.50;;;16.50;99.90;;;16.95;76.09;102043.59;4950372;28;20138;-63
2023/06/07 05:49:45;;;;;;;19.30;10.30;;;16.60;99.90;;;16.32;75.85;101916.91;4935025;29;20489;-63
2023/06/07 05:52:14;;;;;;;18.40;9.70;;;16.60;99.90;;;17.12;76.01;102037.13;4934569;29;20049;-63
2023/06/07 05:54:54;;;;;;;19.48;9.43;;;16.70;99.90;;;17.28;75.17;102029.81;4939141;29;20062;-62
2023/06/07 05:57:22;;;;;;;17.67;9.52;;;16.90;99.90;;;17.36;74.70;102032.38;4939012;29;20099;-64
2023/06/07 05:59:51;;;;;;;20.63;8.85;;;17.00;99.90;;;17.53;74.17;102028.59;4939043;29;20094;-63
2023/06/07 06:02:20;;;;;;;17.10;8.98;;;17.10;99.90;;;17.63;73.74;102032.03;4938890;29;20044;-63
2023/06/07 06:04:52;;;;;;;17.58;8.63;;;17.30;99.90;;;17.73;73.83;102030.97;4935286;29;20048;-63
2023/06/07 06:07:21;;;;;;;16.25;8.60;;;17.30;99.90;;;17.90;73.03;102029.78;4938824;29;20075;-63
2023/06/07 06:09:51;;;;;;;19.67;8.32;;;17.50;99.90;;;17.88;71.94;102026.28;4938836;29;20039;-63
2023/06/07 06:12:19;;;;;;;14.20;8.07;;;17.60;99.90;;;17.36;72.22;101906.66;4938667;29;20052;-63
2023/06/07 06:14:47;;;;;;;17.25;8.80;;;17.70;99.90;;;18.18;71.84;102029.31;4938566;29;20512;-63
2023/06/07 06:17:16;;;;;;;18.85;8.57;;;17.80;99.90;;;18.35;71.44;102038.84;4938516;29;20055;-63
2023/06/07 06:19:45;;;;;;;16.83;8.25;;;17.90;99.90;;;18.42;70.07;102028.91;4936830;29;20489;-63
2023/06/07 06:22:13;;;;;;;19.13;8.25;;;18.10;99.90;;;18.37;69.63;102033.47;4938491;29;20438;-62
2023/06/07 06:24:42;;;;;;;17.08;9.00;;;18.10;99.90;;;18.45;69.59;102040.50;4926164;29;20056;-63
2023/06/07 06:27:12;;;;;;;18.35;8.32;;;18.10;99.90;;;18.40;69.60;102038.78;4935029;29;20044;-63
2023/06/07 06:29:41;;;;;;;16.70;7.22;;;18.10;99.90;;;18.21;69.25;102043.56;4938533;29;20146;-63
2023/06/07 06:32:10;;;;;;;16.98;8.20;;;18.00;99.90;;;18.29;69.83;102038.09;4938468;29;20138;-63
2023/06/07 06:34:38;;;;;;;13.77;7.80;;;17.90;99.90;;;18.30;69.47;102045.19;4938464;29;20052;-63
2023/06/07 06:37:07;;;;;;;18.38;7.63;;;17.90;99.90;;;18.34;69.34;102050.50;4938250;29;20118;-64
2023/06/07 06:39:35;;;;;;;15.45;7.47;;;18.00;99.90;;;17.90;70.35;102045.84;4938142;29;20056;-64
2023/06/07 06:42:04;;;;;;;17.98;8.85;;;17.70;99.90;;;17.94;70.87;102041.34;4953173;29;20110;-63
2023/06/07 06:44:57;;;;;;;18.45;8.20;;;17.60;99.90;;;18.30;71.14;102050.56;4919378;29;20139;-63
2023/06/07 06:47:26;;;;;;;16.00;7.60;;;17.90;99.90;;;18.08;69.38;102050.03;4938200;29;20110;-64
2023/06/07 06:49:55;;;;;;;18.27;9.10;;;17.80;99.90;;;18.09;69.78;102041.09;4938031;29;20048;-63
2023/06/07 06:52:25;;;;;;;22.05;8.05;;;17.80;99.90;;;17.99;69.49;102045.72;4938101;29;20128;-63
2023/06/07 06:54:54;;;;;;;14.05;7.85;;;17.80;99.90;;;17.91;69.85;102057.44;4934985;29;20043;-63
2023/06/07 06:57:22;;;;;;;17.45;8.35;;;17.60;99.90;;;18.04;70.12;102054.56;4937850;29;20040;-64
2023/06/07 06:59:50;;;;;;;16.83;8.43;;;17.70;99.90;;;18.22;70.14;102063.19;4937769;29;20047;-63
2023/06/07 07:02:20;;;;;;;19.77;8.07;;;17.80;99.90;;;18.38;70.30;102057.56;4936516;29;20519;-62
2023/06/07 07:04:50;;;;;;;15.43;8.02;;;18.00;99.90;;;18.53;70.16;102059.09;4952751;29;20123;-63
2023/06/07 07:07:18;;;;;;;19.48;8.20;;;18.20;99.90;;;18.70;69.60;102052.53;4937719;29;20047;-64
2023/06/07 07:09:47;;;;;;;22.00;7.75;;;18.30;99.90;;;18.88;69.35;102052.19;4937871;29;20052;-64
2023/06/07 07:12:15;;;;;;;18.48;7.90;;;18.50;99.90;;;18.95;68.31;102052.06;4937680;29;20513;-64
2023/06/07 07:14:43;;;;;;;17.40;7.70;;;18.60;99.90;;;19.12;68.00;102060.66;4937630;29;20104;-64
2023/06/07 07:17:12;;;;;;;18.50;8.00;;;18.70;99.90;;;19.16;67.20;102063.25;4936131;29;20082;-65
2023/06/07 07:19:42;;;;;;;17.17;7.65;;;18.80;99.90;;;19.21;66.75;102049.72;4937614;29;20048;-62
2023/06/07 07:22:10;;;;;;;13.33;8.03;;;18.90;99.90;;;19.37;66.77;102061.94;4937594;29;20058;-62
2023/06/07 07:24:39;;;;;;;14.45;7.22;;;19.00;99.90;;;19.39;66.49;102066.38;4937444;29;20394;-62
2023/06/07 07:27:07;;;;;;;14.55;7.80;;;19.10;99.90;;;19.58;67.07;102059.66;4937447;29;20386;-62
2023/06/07 07:29:36;;;;;;;17.60;7.53;;;19.20;99.90;;;19.71;66.39;102071.00;4937101;29;20087;-61
2023/06/07 07:32:06;;;;;;;17.98;8.45;;;19.40;99.90;;;19.60;65.70;102065.00;4937465;29;20048;-61
2023/06/07 07:34:35;;;;;;;19.77;8.32;;;19.30;99.90;;;19.79;65.92;102071.72;4936159;29;20055;-62
2023/06/07 07:37:07;;;;;;;17.55;8.10;;;19.40;99.90;;;19.73;65.89;102067.38;4933622;29;20086;-61
2023/06/07 07:39:36;;;;;;;16.05;7.25;;;19.40;99.90;;;19.98;65.82;102067.66;4933969;29;20053;-62
2023/06/07 07:42:06;;;;;;;15.93;7.65;;;19.60;99.90;;;19.38;65.95;102074.41;4937147;29;20173;-63
2023/06/07 07:44:35;;;;;;;18.75;8.10;;;19.20;99.90;;;19.61;65.70;102072.13;4937393;29;20060;-64
2023/06/07 07:47:05;;;;;;;18.23;7.93;;;19.20;99.90;;;19.72;65.98;102075.47;4937075;29;20047;-64
2023/06/07 07:49:33;;;;;;;13.68;7.57;;;19.30;99.90;;;19.29;65.79;101969.94;4937223;29;20050;-64
2023/06/07 07:52:06;;;;;;;14.82;7.70;;;19.50;99.90;;;19.87;65.09;102075.13;4937027;29;20055;-63
2023/06/07 07:54:35;;;;;;;16.20;7.72;;;19.60;99.90;;;20.16;65.86;102077.97;4933144;29;20052;-62
2023/06/07 07:57:04;;;;;;;17.55;7.40;;;19.80;99.90;;;20.38;65.51;102070.31;4929317;29;20048;-64
2023/06/07 07:59:32;;;;;;;19.38;7.75;;;20.00;99.90;;;20.40;63.88;102063.09;4936556;29;20059;-64
2023/06/07 08:02:00;;;;;;;18.92;8.48;;;20.10;99.90;;;20.57;64.18;102068.91;4936813;29;20421;-62
2023/06/07 08:04:29;;;;;;;16.55;8.35;;;20.20;99.90;;;20.68;63.12;102066.81;4936702;29;20056;-63
2023/06/07 08:06:57;;;;;;;14.35;7.25;;;20.30;99.90;;;20.10;62.23;101953.66;4936707;29;20040;-62
2023/06/07 08:09:27;;;;;;;14.52;7.82;;;20.40;99.90;;;20.82;62.26;102063.75;4936594;29;20039;-62
2023/06/07 08:11:56;;;;;;;16.60;7.20;;;20.50;99.90;;;20.76;62.12;102042.38;4936211;29;20048;-62
2023/06/07 08:14:24;;;;;;;14.57;8.15;;;20.60;99.90;;;20.90;62.14;102068.00;4936711;29;20040;-62
2023/06/07 08:16:53;;;;;;;14.90;7.40;;;20.60;99.90;;;20.87;61.90;102062.69;4951129;29;20118;-62
2023/06/07 08:19:21;;;;;;;17.70;7.90;;;20.60;99.90;;;20.97;61.92;102064.19;4932843;29;20091;-64
2023/06/07 08:21:49;;;;;;;13.20;7.97;;;20.60;99.90;;;21.14;62.41;102072.69;4936327;29;20048;-63
2023/06/07 08:24:18;;;;;;;15.55;7.53;;;20.80;99.90;;;20.66;61.27;101971.84;4936626;29;20056;-64
2023/06/07 08:26:49;;;;;;;16.02;8.38;;;20.80;99.90;;;21.30;61.40;102065.06;4936347;29;20090;-62
2023/06/07 08:29:17;;;;;;;12.63;7.28;;;20.90;99.90;;;21.38;60.45;102063.94;4936288;29;20044;-63
2023/06/07 08:31:50;;;;;;;15.95;8.00;;;21.10;99.90;;;21.25;59.47;102057.13;4936349;29;20079;-64
2023/06/07 08:34:19;;;;;;;13.65;7.20;;;21.00;99.90;;;21.34;60.77;102064.94;4936131;29;20370;-64
2023/06/07 08:36:50;;;;;;;17.67;7.53;;;21.00;99.90;;;21.29;59.63;102049.84;4936173;29;20043;-68
2023/06/07 08:39:18;;;;;;;15.23;7.78;;;21.00;99.90;;;21.47;60.61;102054.66;4933056;29;20040;-69
2023/06/07 08:41:48;;;;;;;16.15;8.32;;;21.10;99.90;;;21.52;59.98;102055.44;4935901;29;20076;-69
2023/06/07 08:44:17;;;;;;;14.85;7.35;;;21.20;99.90;;;21.68;59.83;102067.47;4936031;29;20091;-67
2023/06/07 08:46:49;;;;;;;18.30;6.95;;;21.40;99.90;;;21.79;58.93;102068.03;4935877;29;20161;-67
2023/06/07 08:49:18;;;;;;;17.00;7.82;;;21.40;99.90;;;21.97;59.06;102067.47;4936062;29;20047;-68
2023/06/07 08:51:47;;;;;;;14.77;6.97;;;21.60;99.90;;;22.03;57.67;102061.00;4935913;29;20390;-68
2023/06/07 08:54:23;;;;;;;16.65;7.90;;;21.70;99.90;;;22.22;58.26;102065.72;4932135;29;20386;-68
2023/06/07 08:56:54;;;;;;;12.63;7.50;;;21.80;99.90;;;22.34;57.72;102067.13;4933176;29;20062;-67
2023/06/07 08:59:25;;;;;;;16.77;7.78;;;22.00;99.90;;;22.20;56.28;102058.66;4935675;29;20051;-68
2023/06/07 09:01:54;;;;;;;19.30;8.02;;;21.90;99.90;;;21.94;56.90;102066.69;4935978;29;20050;-68
2023/06/07 09:04:23;;;;;;;14.57;7.70;;;21.80;99.90;;;21.97;57.69;102062.06;4935631;29;20055;-69
2023/06/07 09:06:52;;;;;;;20.17;9.05;;;21.70;99.90;;;21.58;57.67;102044.47;4935740;29;20469;-69
2023/06/07 09:09:20;;;;;;;18.95;8.20;;;21.50;99.90;;;21.99;58.59;102071.00;4935546;29;20047;-68
2023/06/07 09:11:53;;;;;;;17.27;8.30;;;21.60;99.90;;;22.12;58.89;102066.09;4931987;29;20047;-69
2023/06/07 09:14:22;;;;;;;13.27;7.85;;;21.80;99.90;;;22.31;58.86;102080.72;4934351;29;20066;-71
2023/06/07 09:16:55;;;;;;;13.60;7.40;;;22.00;99.90;;;22.55;57.13;102068.25;4935859;29;20063;-69
2023/06/07 09:19:38;;;;;;;13.88;7.20;;;22.20;99.90;;;22.74;57.66;102072.97;4935428;29;20044;-69
2023/06/07 09:22:08;;;;;;;15.23;7.82;;;22.40;99.90;;;22.74;56.58;102032.50;4932600;29;20488;-70
2023/06/07 09:24:38;;;;;;;14.90;7.68;;;22.70;99.90;;;23.01;55.87;102052.19;4935529;29;20059;-69
2023/06/07 09:27:09;;;;;;;15.15;7.07;;;22.80;99.90;;;23.17;55.50;102064.19;4935694;29;20131;-69
2023/06/07 09:29:42;;;;;;;14.68;7.72;;;22.90;99.90;;;23.29;54.76;102061.91;4935203;29;20059;-70
2023/06/07 09:32:23;;;;;;;13.98;6.88;;;23.00;99.90;;;23.51;55.12;102067.41;4922654;29;20058;-71
2023/06/07 09:34:53;;;;;;;15.93;7.63;;;23.20;99.90;;;23.64;54.56;102070.50;4933643;29;20048;-69
2023/06/07 09:37:22;;;;;;;11.10;6.82;;;23.30;99.90;;;23.67;54.83;102046.97;4935373;29;20477;-72
2023/06/07 09:39:54;;;;;;;17.58;7.78;;;23.50;99.90;;;23.67;54.55;102041.56;4934107;29;20052;-73
2023/06/07 09:42:24;;;;;;;17.10;7.07;;;23.50;99.90;;;23.88;53.46;102062.31;4931555;29;20081;-72
2023/06/07 09:44:53;;;;;;;15.20;7.72;;;23.60;99.90;;;24.01;53.22;102059.97;4933903;29;20429;-69
2023/06/07 09:47:23;;;;;;;14.52;7.40;;;23.70;99.90;;;23.77;51.62;102059.13;4935129;29;20496;-71
2023/06/07 09:49:55;;;;;;;14.48;7.70;;;23.50;99.90;;;23.69;51.99;102060.41;4935284;29;20044;-71
2023/06/07 09:52:25;;;;;;;13.45;7.32;;;23.40;99.90;;;23.80;52.56;102067.13;4935242;29;20175;-70
2023/06/07 09:54:56;;;;;;;14.27;7.68;;;23.40;99.90;;;23.53;51.98;102060.13;4935252;29;20039;-70
2023/06/07 09:57:35;;;;;;;17.83;8.05;;;23.30;99.90;;;23.81;53.16;102063.47;4935099;29;20063;-72
2023/06/07 10:00:13;;;;;;;11.45;7.32;;;23.40;99.90;;;24.03;53.43;102069.81;4932828;29;20459;-70
2023/06/07 10:02:43;;;;;;;15.32;7.30;;;23.70;99.90;;;23.48;52.20;102064.81;4935535;29;20058;-70
2023/06/07 10:05:13;;;;;;;14.40;8.30;;;23.40;99.90;;;22.94;51.71;102053.34;4935081;29;20055;-71
2023/06/07 10:07:45;;;;;;;15.15;7.75;;;22.90;99.90;;;23.12;54.71;102053.56;4931863;29;20062;-71
2023/06/07 10:10:17;;;;;;;14.85;8.00;;;22.70;99.90;;;23.28;53.15;102040.34;4934988;29;20418;-69
2023/06/07 10:12:48;;;;;;;12.25;8.40;;;23.00;99.90;;;23.35;52.82;102047.31;4935049;29;20051;-72
2023/06/07 10:15:23;;;;;;;16.35;7.80;;;23.00;99.90;;;23.36;53.12;102054.50;4935273;29;20090;-70
2023/06/07 10:17:57;;;;;;;16.05;8.10;;;23.00;99.90;;;23.28;53.26;102041.25;4931443;29;20493;-70